Delaware City, Delaware
Current Conditions -  °F | °C
As of 6:51 PM on Friday 28 Nov 2014 (Local Time) from KILG Reporting Station
Clear Clear  
Wind Chill: 26°   Ceiling: Unl
Heat Index: 31°   Visibility: 10mi
Dew Point: 16°   Wind: 5mph
Humidity: 54%   Direction: 310°NW
Pressure: 30.28"   Gusts: NA
Location:  39.58°N, 75.59°W
Report Text: KILG 282351Z AUTO 31004KT 10SM CLR M01/M09 A3028 RMK AO2 SLP255 T10061089 10033 21011 51008
Loading
Personal Weather Stations






























Interactive Weather Map New forecast layout! Learn more

10-Day Weather Forecast

Advertisements
Track Severe Weather on mobile